sensor_id;sensor_type;location;lat;lon;timestamp;P1;durP1;ratioP1;P2;durP2;ratioP2
49828;SDS011;35723;51.194;5.112;2022-09-16T00:01:15;11.57;;;2.80;;
49828;SDS011;35723;51.194;5.112;2022-09-16T00:03:42;11.13;;;2.40;;
49828;SDS011;35723;51.194;5.112;2022-09-16T00:06:18;8.82;;;2.30;;
49828;SDS011;35723;51.194;5.112;2022-09-16T00:08:47;10.45;;;2.22;;
49828;SDS011;35723;51.194;5.112;2022-09-16T00:11:13;6.72;;;2.10;;
49828;SDS011;35723;51.194;5.112;2022-09-16T00:13:39;15.27;;;2.78;;
49828;SDS011;35723;51.194;5.112;2022-09-16T00:16:06;10.35;;;2.40;;
49828;SDS011;35723;51.194;5.112;2022-09-16T00:18:35;11.77;;;2.40;;
49828;SDS011;35723;51.194;5.112;2022-09-16T00:21:00;13.73;;;2.22;;
49828;SDS011;35723;51.194;5.112;2022-09-16T00:23:30;14.02;;;2.70;;
49828;SDS011;35723;51.194;5.112;2022-09-16T00:25:56;13.90;;;2.30;;
49828;SDS011;35723;51.194;5.112;2022-09-16T00:28:21;12.68;;;2.50;;
49828;SDS011;35723;51.194;5.112;2022-09-16T00:30:48;9.48;;;2.30;;
49828;SDS011;35723;51.194;5.112;2022-09-16T00:33:14;12.80;;;2.20;;
49828;SDS011;35723;51.194;5.112;2022-09-16T00:35:40;17.00;;;2.47;;
49828;SDS011;35723;51.194;5.112;2022-09-16T00:38:06;12.18;;;2.50;;
49828;SDS011;35723;51.194;5.112;2022-09-16T00:40:32;14.65;;;2.42;;
49828;SDS011;35723;51.194;5.112;2022-09-16T00:42:58;11.35;;;2.35;;
49828;SDS011;35723;51.194;5.112;2022-09-16T00:45:25;8.85;;;2.30;;
49828;SDS011;35723;51.194;5.112;2022-09-16T00:47:58;10.38;;;2.20;;
49828;SDS011;35723;51.194;5.112;2022-09-16T00:53:16;9.23;;;2.40;;
49828;SDS011;35723;51.194;5.112;2022-09-16T00:55:49;10.60;;;2.35;;
49828;SDS011;35723;51.194;5.112;2022-09-16T00:58:28;12.32;;;2.30;;
49828;SDS011;35723;51.194;5.112;2022-09-16T01:00:59;8.30;;;2.30;;
49828;SDS011;35723;51.194;5.112;2022-09-16T01:03:27;12.77;;;2.30;;
49828;SDS011;35723;51.194;5.112;2022-09-16T01:05:54;7.80;;;2.30;;
49828;SDS011;35723;51.194;5.112;2022-09-16T01:08:19;10.60;;;2.33;;
49828;SDS011;35723;51.194;5.112;2022-09-16T01:10:45;10.10;;;2.40;;
49828;SDS011;35723;51.194;5.112;2022-09-16T01:13:11;12.52;;;2.50;;
49828;SDS011;35723;51.194;5.112;2022-09-16T01:23:25;12.57;;;2.45;;
49828;SDS011;35723;51.194;5.112;2022-09-16T01:31:22;9.48;;;2.40;;
49828;SDS011;35723;51.194;5.112;2022-09-16T01:34:21;14.07;;;2.70;;
49828;SDS011;35723;51.194;5.112;2022-09-16T01:37:16;14.40;;;2.63;;
49828;SDS011;35723;51.194;5.112;2022-09-16T01:43:19;8.07;;;2.10;;
49828;SDS011;35723;51.194;5.112;2022-09-16T01:45:57;15.05;;;2.40;;
49828;SDS011;35723;51.194;5.112;2022-09-16T01:48:28;12.38;;;2.50;;
49828;SDS011;35723;51.194;5.112;2022-09-16T01:51:13;11.95;;;2.60;;
49828;SDS011;35723;51.194;5.112;2022-09-16T01:56:40;13.43;;;2.63;;
49828;SDS011;35723;51.194;5.112;2022-09-16T01:59:12;9.48;;;2.20;;
49828;SDS011;35723;51.194;5.112;2022-09-16T02:01:59;10.75;;;2.20;;
49828;SDS011;35723;51.194;5.112;2022-09-16T02:07:08;11.30;;;2.60;;
49828;SDS011;35723;51.194;5.112;2022-09-16T02:09:38;12.68;;;2.50;;
49828;SDS011;35723;51.194;5.112;2022-09-16T02:12:09;11.13;;;2.92;;
49828;SDS011;35723;51.194;5.112;2022-09-16T02:14:42;12.90;;;2.47;;
49828;SDS011;35723;51.194;5.112;2022-09-16T02:17:14;17.83;;;2.75;;
49828;SDS011;35723;51.194;5.112;2022-09-16T02:19:48;13.10;;;2.35;;
49828;SDS011;35723;51.194;5.112;2022-09-16T02:22:38;11.25;;;2.67;;
49828;SDS011;35723;51.194;5.112;2022-09-16T02:25:07;13.32;;;2.35;;
49828;SDS011;35723;51.194;5.112;2022-09-16T02:27:37;12.85;;;2.55;;
49828;SDS011;35723;51.194;5.112;2022-09-16T02:30:06;11.13;;;2.47;;
49828;SDS011;35723;51.194;5.112;2022-09-16T02:32:35;12.43;;;2.47;;
49828;SDS011;35723;51.194;5.112;2022-09-16T02:35:06;13.60;;;2.65;;
49828;SDS011;35723;51.194;5.112;2022-09-16T02:37:38;13.77;;;2.50;;
49828;SDS011;35723;51.194;5.112;2022-09-16T02:40:14;11.13;;;2.75;;
49828;SDS011;35723;51.194;5.112;2022-09-16T02:42:43;17.95;;;2.50;;
49828;SDS011;35723;51.194;5.112;2022-09-16T02:45:09;8.90;;;2.53;;
49828;SDS011;35723;51.194;5.112;2022-09-16T02:50:24;7.57;;;2.42;;
49828;SDS011;35723;51.194;5.112;2022-09-16T02:53:00;15.05;;;2.80;;
49828;SDS011;35723;51.194;5.112;2022-09-16T02:58:06;13.32;;;2.40;;
49828;SDS011;35723;51.194;5.112;2022-09-16T03:00:34;10.57;;;2.22;;
49828;SDS011;35723;51.194;5.112;2022-09-16T03:03:03;13.10;;;2.42;;
49828;SDS011;35723;51.194;5.112;2022-09-16T03:05:30;13.20;;;2.47;;
49828;SDS011;35723;51.194;5.112;2022-09-16T03:07:55;10.48;;;2.40;;
49828;SDS011;35723;51.194;5.112;2022-09-16T03:10:26;9.93;;;2.30;;
49828;SDS011;35723;51.194;5.112;2022-09-16T03:15:24;12.65;;;2.17;;
49828;SDS011;35723;51.194;5.112;2022-09-16T03:20:57;13.35;;;2.00;;
49828;SDS011;35723;51.194;5.112;2022-09-16T03:23:33;10.98;;;2.65;;
49828;SDS011;35723;51.194;5.112;2022-09-16T03:26:10;10.80;;;2.40;;
49828;SDS011;35723;51.194;5.112;2022-09-16T03:31:16;13.55;;;2.65;;
49828;SDS011;35723;51.194;5.112;2022-09-16T03:36:57;9.70;;;2.35;;
49828;SDS011;35723;51.194;5.112;2022-09-16T03:39:26;13.05;;;2.35;;
49828;SDS011;35723;51.194;5.112;2022-09-16T03:41:52;10.13;;;1.80;;
49828;SDS011;35723;51.194;5.112;2022-09-16T03:44:19;14.13;;;1.90;;
49828;SDS011;35723;51.194;5.112;2022-09-16T03:46:45;8.75;;;1.98;;
49828;SDS011;35723;51.194;5.112;2022-09-16T03:49:10;11.60;;;1.75;;
49828;SDS011;35723;51.194;5.112;2022-09-16T03:51:37;12.10;;;2.30;;
49828;SDS011;35723;51.194;5.112;2022-09-16T03:54:02;7.90;;;1.83;;
49828;SDS011;35723;51.194;5.112;2022-09-16T03:56:28;11.43;;;1.80;;
49828;SDS011;35723;51.194;5.112;2022-09-16T03:58:54;12.52;;;2.45;;
49828;SDS011;35723;51.194;5.112;2022-09-16T04:01:20;8.85;;;2.28;;
49828;SDS011;35723;51.194;5.112;2022-09-16T04:03:46;7.75;;;1.88;;
49828;SDS011;35723;51.194;5.112;2022-09-16T04:06:12;12.65;;;2.10;;
49828;SDS011;35723;51.194;5.112;2022-09-16T04:08:37;11.57;;;2.42;;
49828;SDS011;35723;51.194;5.112;2022-09-16T04:11:04;9.18;;;2.28;;
49828;SDS011;35723;51.194;5.112;2022-09-16T04:13:30;11.80;;;1.77;;
49828;SDS011;35723;51.194;5.112;2022-09-16T04:15:57;13.90;;;2.22;;
49828;SDS011;35723;51.194;5.112;2022-09-16T04:18:23;12.52;;;1.90;;
49828;SDS011;35723;51.194;5.112;2022-09-16T04:20:49;13.07;;;2.10;;
49828;SDS011;35723;51.194;5.112;2022-09-16T04:23:20;11.75;;;2.25;;
49828;SDS011;35723;51.194;5.112;2022-09-16T04:25:58;8.65;;;1.92;;
49828;SDS011;35723;51.194;5.112;2022-09-16T04:28:26;10.27;;;1.80;;
49828;SDS011;35723;51.194;5.112;2022-09-16T04:30:52;11.82;;;1.85;;
49828;SDS011;35723;51.194;5.112;2022-09-16T04:33:18;7.95;;;1.50;;
49828;SDS011;35723;51.194;5.112;2022-09-16T04:35:43;11.05;;;2.10;;
49828;SDS011;35723;51.194;5.112;2022-09-16T04:38:09;10.20;;;2.00;;
49828;SDS011;35723;51.194;5.112;2022-09-16T04:40:35;9.15;;;1.83;;
49828;SDS011;35723;51.194;5.112;2022-09-16T04:43:03;9.98;;;1.80;;
49828;SDS011;35723;51.194;5.112;2022-09-16T04:45:29;7.90;;;1.85;;
49828;SDS011;35723;51.194;5.112;2022-09-16T04:47:55;16.17;;;2.60;;
49828;SDS011;35723;51.194;5.112;2022-09-16T04:50:21;13.43;;;2.10;;
49828;SDS011;35723;51.194;5.112;2022-09-16T04:52:47;9.70;;;2.00;;
49828;SDS011;35723;51.194;5.112;2022-09-16T04:55:15;6.43;;;1.67;;
49828;SDS011;35723;51.194;5.112;2022-09-16T04:57:41;10.88;;;2.05;;
49828;SDS011;35723;51.194;5.112;2022-09-16T05:00:07;12.95;;;1.70;;
49828;SDS011;35723;51.194;5.112;2022-09-16T05:02:33;8.20;;;1.52;;
49828;SDS011;35723;51.194;5.112;2022-09-16T05:04:59;11.93;;;1.40;;
49828;SDS011;35723;51.194;5.112;2022-09-16T05:07:25;9.55;;;1.80;;
49828;SDS011;35723;51.194;5.112;2022-09-16T05:09:53;12.77;;;2.15;;
49828;SDS011;35723;51.194;5.112;2022-09-16T05:12:18;10.68;;;1.88;;
49828;SDS011;35723;51.194;5.112;2022-09-16T05:14:44;11.07;;;2.00;;
49828;SDS011;35723;51.194;5.112;2022-09-16T05:17:09;14.18;;;2.28;;
49828;SDS011;35723;51.194;5.112;2022-09-16T05:19:35;13.80;;;2.30;;
49828;SDS011;35723;51.194;5.112;2022-09-16T05:22:00;12.57;;;2.30;;
49828;SDS011;35723;51.194;5.112;2022-09-16T05:24:32;19.00;;;2.67;;
49828;SDS011;35723;51.194;5.112;2022-09-16T05:26:59;13.55;;;1.90;;
49828;SDS011;35723;51.194;5.112;2022-09-16T05:29:24;12.45;;;1.95;;
49828;SDS011;35723;51.194;5.112;2022-09-16T05:31:50;11.50;;;1.98;;
49828;SDS011;35723;51.194;5.112;2022-09-16T05:34:17;11.38;;;2.03;;
49828;SDS011;35723;51.194;5.112;2022-09-16T05:36:44;14.43;;;2.10;;
49828;SDS011;35723;51.194;5.112;2022-09-16T05:39:12;8.10;;;1.85;;
49828;SDS011;35723;51.194;5.112;2022-09-16T05:41:40;11.90;;;1.98;;
49828;SDS011;35723;51.194;5.112;2022-09-16T05:44:06;8.80;;;1.95;;
49828;SDS011;35723;51.194;5.112;2022-09-16T05:46:32;14.95;;;2.28;;
49828;SDS011;35723;51.194;5.112;2022-09-16T05:49:01;8.07;;;2.08;;
49828;SDS011;35723;51.194;5.112;2022-09-16T05:51:26;5.28;;;1.83;;
49828;SDS011;35723;51.194;5.112;2022-09-16T05:53:53;8.77;;;1.75;;
49828;SDS011;35723;51.194;5.112;2022-09-16T05:56:20;11.00;;;1.83;;
49828;SDS011;35723;51.194;5.112;2022-09-16T05:58:50;12.73;;;1.90;;
49828;SDS011;35723;51.194;5.112;2022-09-16T06:01:18;8.55;;;1.80;;
49828;SDS011;35723;51.194;5.112;2022-09-16T06:03:46;11.02;;;2.00;;
49828;SDS011;35723;51.194;5.112;2022-09-16T06:09:19;14.85;;;1.95;;
49828;SDS011;35723;51.194;5.112;2022-09-16T06:11:45;11.52;;;2.13;;
49828;SDS011;35723;51.194;5.112;2022-09-16T06:14:13;11.57;;;1.95;;
49828;SDS011;35723;51.194;5.112;2022-09-16T06:16:40;17.92;;;2.42;;
49828;SDS011;35723;51.194;5.112;2022-09-16T06:19:12;11.40;;;1.90;;
49828;SDS011;35723;51.194;5.112;2022-09-16T06:24:05;5.88;;;1.63;;
49828;SDS011;35723;51.194;5.112;2022-09-16T06:26:35;16.05;;;4.15;;
49828;SDS011;35723;51.194;5.112;2022-09-16T06:29:03;17.55;;;2.50;;
49828;SDS011;35723;51.194;5.112;2022-09-16T06:31:30;8.90;;;2.25;;
49828;SDS011;35723;51.194;5.112;2022-09-16T06:33:57;15.60;;;2.65;;
49828;SDS011;35723;51.194;5.112;2022-09-16T06:36:24;5.93;;;1.50;;
49828;SDS011;35723;51.194;5.112;2022-09-16T06:38:51;8.55;;;1.60;;
49828;SDS011;35723;51.194;5.112;2022-09-16T06:41:17;11.23;;;1.70;;
49828;SDS011;35723;51.194;5.112;2022-09-16T06:43:44;12.45;;;1.80;;
49828;SDS011;35723;51.194;5.112;2022-09-16T06:46:14;7.97;;;2.20;;
49828;SDS011;35723;51.194;5.112;2022-09-16T06:48:47;8.35;;;1.60;;
49828;SDS011;35723;51.194;5.112;2022-09-16T06:51:18;10.80;;;1.90;;
49828;SDS011;35723;51.194;5.112;2022-09-16T06:53:49;10.18;;;2.10;;
49828;SDS011;35723;51.194;5.112;2022-09-16T06:56:16;13.98;;;2.13;;
49828;SDS011;35723;51.194;5.112;2022-09-16T06:58:43;10.45;;;2.30;;
49828;SDS011;35723;51.194;5.112;2022-09-16T07:01:15;8.00;;;2.35;;
49828;SDS011;35723;51.194;5.112;2022-09-16T07:03:42;13.18;;;2.70;;
49828;SDS011;35723;51.194;5.112;2022-09-16T07:06:09;10.40;;;2.70;;
49828;SDS011;35723;51.194;5.112;2022-09-16T07:08:37;11.82;;;2.88;;
49828;SDS011;35723;51.194;5.112;2022-09-16T07:11:04;12.32;;;3.00;;
49828;SDS011;35723;51.194;5.112;2022-09-16T07:13:41;20.38;;;3.30;;
49828;SDS011;35723;51.194;5.112;2022-09-16T07:16:09;19.77;;;3.58;;
49828;SDS011;35723;51.194;5.112;2022-09-16T07:18:37;14.77;;;3.22;;
49828;SDS011;35723;51.194;5.112;2022-09-16T07:21:13;12.80;;;2.97;;
49828;SDS011;35723;51.194;5.112;2022-09-16T07:23:39;14.57;;;2.72;;
49828;SDS011;35723;51.194;5.112;2022-09-16T07:26:15;13.40;;;2.70;;
49828;SDS011;35723;51.194;5.112;2022-09-16T07:28:44;20.08;;;3.08;;
49828;SDS011;35723;51.194;5.112;2022-09-16T07:31:12;10.27;;;2.67;;
49828;SDS011;35723;51.194;5.112;2022-09-16T07:33:40;12.68;;;3.20;;
49828;SDS011;35723;51.194;5.112;2022-09-16T07:36:09;13.63;;;2.80;;
49828;SDS011;35723;51.194;5.112;2022-09-16T07:38:36;14.00;;;2.60;;
49828;SDS011;35723;51.194;5.112;2022-09-16T07:41:06;7.43;;;2.10;;
49828;SDS011;35723;51.194;5.112;2022-09-16T07:43:33;10.38;;;2.20;;
49828;SDS011;35723;51.194;5.112;2022-09-16T07:45:59;16.35;;;2.85;;
49828;SDS011;35723;51.194;5.112;2022-09-16T07:48:27;13.65;;;2.90;;
49828;SDS011;35723;51.194;5.112;2022-09-16T07:50:57;9.52;;;2.80;;
49828;SDS011;35723;51.194;5.112;2022-09-16T07:53:25;14.05;;;3.17;;
49828;SDS011;35723;51.194;5.112;2022-09-16T07:55:52;13.13;;;3.13;;
49828;SDS011;35723;51.194;5.112;2022-09-16T07:58:18;11.20;;;3.53;;
49828;SDS011;35723;51.194;5.112;2022-09-16T08:00:44;23.27;;;4.57;;
49828;SDS011;35723;51.194;5.112;2022-09-16T08:03:12;17.50;;;4.22;;
49828;SDS011;35723;51.194;5.112;2022-09-16T08:05:37;22.98;;;5.65;;
49828;SDS011;35723;51.194;5.112;2022-09-16T08:08:03;29.42;;;4.90;;
49828;SDS011;35723;51.194;5.112;2022-09-16T08:10:29;26.48;;;5.00;;
49828;SDS011;35723;51.194;5.112;2022-09-16T08:12:54;23.70;;;4.70;;
49828;SDS011;35723;51.194;5.112;2022-09-16T08:15:20;27.10;;;5.05;;
49828;SDS011;35723;51.194;5.112;2022-09-16T08:17:46;12.23;;;3.95;;
49828;SDS011;35723;51.194;5.112;2022-09-16T08:20:12;14.13;;;3.95;;
49828;SDS011;35723;51.194;5.112;2022-09-16T08:22:38;13.57;;;3.80;;
49828;SDS011;35723;51.194;5.112;2022-09-16T08:25:04;13.02;;;3.63;;
49828;SDS011;35723;51.194;5.112;2022-09-16T08:27:30;14.77;;;3.55;;
49828;SDS011;35723;51.194;5.112;2022-09-16T08:29:58;11.88;;;3.13;;
49828;SDS011;35723;51.194;5.112;2022-09-16T08:32:24;10.55;;;2.50;;
49828;SDS011;35723;51.194;5.112;2022-09-16T08:34:49;10.57;;;2.35;;
49828;SDS011;35723;51.194;5.112;2022-09-16T08:37:15;10.15;;;2.58;;
49828;SDS011;35723;51.194;5.112;2022-09-16T08:39:41;14.50;;;2.50;;
49828;SDS011;35723;51.194;5.112;2022-09-16T08:48:33;16.98;;;3.20;;
49828;SDS011;35723;51.194;5.112;2022-09-16T08:50:52;13.18;;;2.75;;
49828;SDS011;35723;51.194;5.112;2022-09-16T08:56:10;9.65;;;2.33;;
49828;SDS011;35723;51.194;5.112;2022-09-16T08:58:39;15.35;;;2.50;;
49828;SDS011;35723;51.194;5.112;2022-09-16T09:01:16;17.75;;;2.38;;
49828;SDS011;35723;51.194;5.112;2022-09-16T09:03:44;10.60;;;2.20;;
49828;SDS011;35723;51.194;5.112;2022-09-16T09:17:14;8.75;;;1.73;;
49828;SDS011;35723;51.194;5.112;2022-09-16T09:33:37;13.45;;;2.40;;
49828;SDS011;35723;51.194;5.112;2022-09-16T09:41:42;13.27;;;2.20;;
49828;SDS011;35723;51.194;5.112;2022-09-16T09:46:59;6.97;;;2.30;;
49828;SDS011;35723;51.194;5.112;2022-09-16T09:49:34;10.55;;;2.65;;
49828;SDS011;35723;51.194;5.112;2022-09-16T09:52:10;15.40;;;2.95;;
49828;SDS011;35723;51.194;5.112;2022-09-16T09:54:37;10.30;;;2.47;;
49828;SDS011;35723;51.194;5.112;2022-09-16T09:57:09;21.35;;;3.00;;
49828;SDS011;35723;51.194;5.112;2022-09-16T10:02:16;12.35;;;2.10;;
49828;SDS011;35723;51.194;5.112;2022-09-16T10:04:45;12.90;;;2.30;;
49828;SDS011;35723;51.194;5.112;2022-09-16T10:07:12;10.15;;;2.15;;
49828;SDS011;35723;51.194;5.112;2022-09-16T10:09:48;8.90;;;1.67;;
49828;SDS011;35723;51.194;5.112;2022-09-16T10:12:28;7.13;;;1.60;;
49828;SDS011;35723;51.194;5.112;2022-09-16T10:14:56;13.50;;;1.90;;
49828;SDS011;35723;51.194;5.112;2022-09-16T10:17:23;5.88;;;1.17;;
49828;SDS011;35723;51.194;5.112;2022-09-16T10:19:54;6.85;;;1.58;;
49828;SDS011;35723;51.194;5.112;2022-09-16T10:24:54;4.90;;;1.10;;
49828;SDS011;35723;51.194;5.112;2022-09-16T10:27:23;7.55;;;1.13;;
49828;SDS011;35723;51.194;5.112;2022-09-16T10:30:10;5.53;;;1.00;;
49828;SDS011;35723;51.194;5.112;2022-09-16T10:32:43;5.90;;;1.05;;
49828;SDS011;35723;51.194;5.112;2022-09-16T10:35:16;7.50;;;0.90;;
49828;SDS011;35723;51.194;5.112;2022-09-16T10:37:46;8.00;;;1.10;;
49828;SDS011;35723;51.194;5.112;2022-09-16T10:40:16;7.45;;;1.50;;
49828;SDS011;35723;51.194;5.112;2022-09-16T10:42:45;5.18;;;1.00;;
49828;SDS011;35723;51.194;5.112;2022-09-16T10:45:18;4.95;;;1.13;;
49828;SDS011;35723;51.194;5.112;2022-09-16T10:47:58;4.90;;;0.90;;
49828;SDS011;35723;51.194;5.112;2022-09-16T10:50:26;6.30;;;0.93;;
49828;SDS011;35723;51.194;5.112;2022-09-16T10:52:52;10.43;;;1.60;;
49828;SDS011;35723;51.194;5.112;2022-09-16T10:57:43;9.00;;;1.30;;
49828;SDS011;35723;51.194;5.112;2022-09-16T11:05:32;6.35;;;1.10;;
49828;SDS011;35723;51.194;5.112;2022-09-16T11:22:39;5.82;;;1.20;;
49828;SDS011;35723;51.194;5.112;2022-09-16T11:25:40;6.95;;;1.15;;
49828;SDS011;35723;51.194;5.112;2022-09-16T11:30:54;5.18;;;1.15;;
49828;SDS011;35723;51.194;5.112;2022-09-16T11:42:00;6.97;;;1.33;;
49828;SDS011;35723;51.194;5.112;2022-09-16T11:47:21;8.13;;;1.20;;
49828;SDS011;35723;51.194;5.112;2022-09-16T12:01:25;2.75;;;0.80;;
49828;SDS011;35723;51.194;5.112;2022-09-16T12:04:20;6.80;;;0.77;;
49828;SDS011;35723;51.194;5.112;2022-09-16T12:10:00;9.50;;;1.65;;
49828;SDS011;35723;51.194;5.112;2022-09-16T12:12:50;2.08;;;0.50;;
49828;SDS011;35723;51.194;5.112;2022-09-16T12:15:36;4.28;;;0.80;;
49828;SDS011;35723;51.194;5.112;2022-09-16T12:18:20;4.75;;;0.77;;
49828;SDS011;35723;51.194;5.112;2022-09-16T12:20:50;3.50;;;0.80;;
49828;SDS011;35723;51.194;5.112;2022-09-16T12:23:23;4.53;;;0.85;;
49828;SDS011;35723;51.194;5.112;2022-09-16T12:28:19;5.50;;;0.63;;
49828;SDS011;35723;51.194;5.112;2022-09-16T12:30:57;4.82;;;0.80;;
49828;SDS011;35723;51.194;5.112;2022-09-16T12:33:32;5.90;;;0.80;;
49828;SDS011;35723;51.194;5.112;2022-09-16T12:36:07;7.22;;;1.10;;
49828;SDS011;35723;51.194;5.112;2022-09-16T12:38:36;8.43;;;0.80;;
49828;SDS011;35723;51.194;5.112;2022-09-16T12:52:02;7.07;;;1.00;;
49828;SDS011;35723;51.194;5.112;2022-09-16T12:54:42;7.57;;;0.88;;
49828;SDS011;35723;51.194;5.112;2022-09-16T13:05:30;4.97;;;0.80;;
49828;SDS011;35723;51.194;5.112;2022-09-16T13:08:02;4.88;;;0.95;;
49828;SDS011;35723;51.194;5.112;2022-09-16T13:10:38;3.97;;;0.85;;
49828;SDS011;35723;51.194;5.112;2022-09-16T13:13:05;6.20;;;0.93;;
49828;SDS011;35723;51.194;5.112;2022-09-16T13:15:35;3.55;;;0.80;;
49828;SDS011;35723;51.194;5.112;2022-09-16T13:21:21;2.97;;;0.90;;
49828;SDS011;35723;51.194;5.112;2022-09-16T13:24:03;5.45;;;1.10;;
49828;SDS011;35723;51.194;5.112;2022-09-16T13:26:37;4.07;;;0.70;;
49828;SDS011;35723;51.194;5.112;2022-09-16T13:29:23;4.05;;;0.70;;
49828;SDS011;35723;51.194;5.112;2022-09-16T13:31:54;2.30;;;0.63;;
49828;SDS011;35723;51.194;5.112;2022-09-16T13:34:20;2.53;;;0.68;;
49828;SDS011;35723;51.194;5.112;2022-09-16T13:36:46;6.18;;;0.68;;
49828;SDS011;35723;51.194;5.112;2022-09-16T13:39:13;3.60;;;0.68;;
49828;SDS011;35723;51.194;5.112;2022-09-16T13:41:41;4.53;;;0.60;;
49828;SDS011;35723;51.194;5.112;2022-09-16T13:44:28;2.00;;;0.55;;
49828;SDS011;35723;51.194;5.112;2022-09-16T13:49:49;2.58;;;0.65;;
49828;SDS011;35723;51.194;5.112;2022-09-16T13:52:39;5.18;;;0.82;;
49828;SDS011;35723;51.194;5.112;2022-09-16T13:55:05;4.35;;;0.50;;
49828;SDS011;35723;51.194;5.112;2022-09-16T14:00:44;4.75;;;0.70;;
49828;SDS011;35723;51.194;5.112;2022-09-16T14:06:27;4.37;;;1.00;;
49828;SDS011;35723;51.194;5.112;2022-09-16T14:11:56;5.32;;;0.90;;
49828;SDS011;35723;51.194;5.112;2022-09-16T14:14:32;4.30;;;0.70;;
49828;SDS011;35723;51.194;5.112;2022-09-16T14:17:03;5.50;;;0.90;;
49828;SDS011;35723;51.194;5.112;2022-09-16T14:19:38;10.35;;;1.67;;
49828;SDS011;35723;51.194;5.112;2022-09-16T14:24:35;9.00;;;1.30;;
49828;SDS011;35723;51.194;5.112;2022-09-16T14:27:16;7.55;;;0.98;;
49828;SDS011;35723;51.194;5.112;2022-09-16T14:30:03;6.60;;;1.10;;
49828;SDS011;35723;51.194;5.112;2022-09-16T14:32:31;7.00;;;1.00;;
49828;SDS011;35723;51.194;5.112;2022-09-16T14:35:08;5.85;;;1.27;;
49828;SDS011;35723;51.194;5.112;2022-09-16T14:37:46;7.45;;;1.10;;
49828;SDS011;35723;51.194;5.112;2022-09-16T14:40:16;9.38;;;1.30;;
49828;SDS011;35723;51.194;5.112;2022-09-16T14:42:47;7.88;;;1.35;;
49828;SDS011;35723;51.194;5.112;2022-09-16T14:45:19;3.25;;;0.82;;
49828;SDS011;35723;51.194;5.112;2022-09-16T14:47:46;6.82;;;1.10;;
49828;SDS011;35723;51.194;5.112;2022-09-16T14:50:15;6.40;;;1.00;;
49828;SDS011;35723;51.194;5.112;2022-09-16T14:52:51;4.88;;;0.95;;
49828;SDS011;35723;51.194;5.112;2022-09-16T14:55:22;6.28;;;1.25;;
49828;SDS011;35723;51.194;5.112;2022-09-16T14:57:49;6.50;;;0.90;;
49828;SDS011;35723;51.194;5.112;2022-09-16T15:00:15;12.05;;;1.48;;
49828;SDS011;35723;51.194;5.112;2022-09-16T15:02:50;4.68;;;0.90;;
49828;SDS011;35723;51.194;5.112;2022-09-16T15:05:33;3.72;;;0.90;;
49828;SDS011;35723;51.194;5.112;2022-09-16T15:10:40;7.03;;;0.98;;
49828;SDS011;35723;51.194;5.112;2022-09-16T15:13:11;8.02;;;1.27;;
49828;SDS011;35723;51.194;5.112;2022-09-16T15:15:44;4.10;;;0.80;;
49828;SDS011;35723;51.194;5.112;2022-09-16T15:18:21;6.10;;;1.27;;
49828;SDS011;35723;51.194;5.112;2022-09-16T15:23:32;4.60;;;0.90;;
49828;SDS011;35723;51.194;5.112;2022-09-16T15:28:53;7.78;;;1.40;;
49828;SDS011;35723;51.194;5.112;2022-09-16T15:31:37;9.95;;;1.20;;
49828;SDS011;35723;51.194;5.112;2022-09-16T15:36:42;9.38;;;1.40;;
49828;SDS011;35723;51.194;5.112;2022-09-16T15:39:29;10.25;;;1.85;;
49828;SDS011;35723;51.194;5.112;2022-09-16T15:44:53;8.43;;;1.17;;
49828;SDS011;35723;51.194;5.112;2022-09-16T15:47:24;5.78;;;1.27;;
49828;SDS011;35723;51.194;5.112;2022-09-16T15:50:00;6.18;;;1.10;;
49828;SDS011;35723;51.194;5.112;2022-09-16T15:52:58;6.68;;;1.10;;
49828;SDS011;35723;51.194;5.112;2022-09-16T15:56:15;12.90;;;1.90;;
49828;SDS011;35723;51.194;5.112;2022-09-16T15:59:01;9.68;;;1.15;;
49828;SDS011;35723;51.194;5.112;2022-09-16T16:01:40;6.05;;;1.02;;
49828;SDS011;35723;51.194;5.112;2022-09-16T16:04:12;9.43;;;1.30;;
49828;SDS011;35723;51.194;5.112;2022-09-16T16:06:58;11.82;;;2.00;;
49828;SDS011;35723;51.194;5.112;2022-09-16T16:11:58;9.13;;;1.30;;
49828;SDS011;35723;51.194;5.112;2022-09-16T16:14:35;8.35;;;1.50;;
49828;SDS011;35723;51.194;5.112;2022-09-16T16:17:12;6.65;;;1.20;;
49828;SDS011;35723;51.194;5.112;2022-09-16T16:19:43;11.85;;;1.40;;
49828;SDS011;35723;51.194;5.112;2022-09-16T16:22:11;8.38;;;1.20;;
49828;SDS011;35723;51.194;5.112;2022-09-16T16:24:37;6.13;;;1.35;;
49828;SDS011;35723;51.194;5.112;2022-09-16T16:27:03;8.15;;;1.25;;
49828;SDS011;35723;51.194;5.112;2022-09-16T16:29:29;5.60;;;1.00;;
49828;SDS011;35723;51.194;5.112;2022-09-16T16:32:08;9.93;;;1.23;;
49828;SDS011;35723;51.194;5.112;2022-09-16T16:34:37;9.90;;;1.50;;
49828;SDS011;35723;51.194;5.112;2022-09-16T16:37:07;7.70;;;1.20;;
49828;SDS011;35723;51.194;5.112;2022-09-16T16:39:34;6.80;;;1.15;;
49828;SDS011;35723;51.194;5.112;2022-09-16T16:42:00;8.35;;;1.45;;
49828;SDS011;35723;51.194;5.112;2022-09-16T16:44:29;10.18;;;1.42;;
49828;SDS011;35723;51.194;5.112;2022-09-16T16:46:55;6.78;;;0.95;;
49828;SDS011;35723;51.194;5.112;2022-09-16T16:49:21;11.07;;;1.45;;
49828;SDS011;35723;51.194;5.112;2022-09-16T16:51:48;7.38;;;1.10;;
49828;SDS011;35723;51.194;5.112;2022-09-16T16:54:15;10.35;;;1.38;;
49828;SDS011;35723;51.194;5.112;2022-09-16T16:56:42;11.40;;;1.42;;
49828;SDS011;35723;51.194;5.112;2022-09-16T16:59:08;6.22;;;1.38;;
49828;SDS011;35723;51.194;5.112;2022-09-16T17:01:33;11.82;;;1.52;;
49828;SDS011;35723;51.194;5.112;2022-09-16T17:04:00;8.35;;;1.42;;
49828;SDS011;35723;51.194;5.112;2022-09-16T17:06:26;9.00;;;1.60;;
49828;SDS011;35723;51.194;5.112;2022-09-16T17:08:53;11.25;;;1.40;;
49828;SDS011;35723;51.194;5.112;2022-09-16T17:11:19;9.02;;;1.63;;
49828;SDS011;35723;51.194;5.112;2022-09-16T17:13:47;8.88;;;1.60;;
49828;SDS011;35723;51.194;5.112;2022-09-16T17:16:19;11.95;;;1.50;;
49828;SDS011;35723;51.194;5.112;2022-09-16T17:18:46;15.35;;;1.77;;
49828;SDS011;35723;51.194;5.112;2022-09-16T17:21:16;12.02;;;1.58;;
49828;SDS011;35723;51.194;5.112;2022-09-16T17:23:44;7.55;;;1.60;;
49828;SDS011;35723;51.194;5.112;2022-09-16T17:26:10;11.35;;;1.77;;
49828;SDS011;35723;51.194;5.112;2022-09-16T17:28:37;7.47;;;1.52;;
49828;SDS011;35723;51.194;5.112;2022-09-16T17:31:08;8.98;;;1.40;;
49828;SDS011;35723;51.194;5.112;2022-09-16T17:33:35;7.78;;;1.88;;
49828;SDS011;35723;51.194;5.112;2022-09-16T17:36:02;12.70;;;1.63;;
49828;SDS011;35723;51.194;5.112;2022-09-16T17:38:29;11.05;;;2.38;;
49828;SDS011;35723;51.194;5.112;2022-09-16T17:41:02;10.07;;;1.80;;
49828;SDS011;35723;51.194;5.112;2022-09-16T17:43:29;11.68;;;1.98;;
49828;SDS011;35723;51.194;5.112;2022-09-16T17:45:56;12.82;;;1.77;;
49828;SDS011;35723;51.194;5.112;2022-09-16T17:48:22;10.80;;;1.90;;
49828;SDS011;35723;51.194;5.112;2022-09-16T17:50:49;9.93;;;1.70;;
49828;SDS011;35723;51.194;5.112;2022-09-16T17:53:15;7.65;;;1.83;;
49828;SDS011;35723;51.194;5.112;2022-09-16T17:55:41;8.75;;;1.70;;
49828;SDS011;35723;51.194;5.112;2022-09-16T17:58:06;12.20;;;1.92;;
49828;SDS011;35723;51.194;5.112;2022-09-16T18:00:32;4.80;;;1.35;;
49828;SDS011;35723;51.194;5.112;2022-09-16T18:02:58;9.10;;;1.65;;
49828;SDS011;35723;51.194;5.112;2022-09-16T18:05:23;11.43;;;2.40;;
49828;SDS011;35723;51.194;5.112;2022-09-16T18:07:49;12.23;;;2.30;;
49828;SDS011;35723;51.194;5.112;2022-09-16T18:10:14;11.18;;;1.92;;
49828;SDS011;35723;51.194;5.112;2022-09-16T18:12:40;12.00;;;2.42;;
49828;SDS011;35723;51.194;5.112;2022-09-16T18:15:06;7.63;;;1.77;;
49828;SDS011;35723;51.194;5.112;2022-09-16T18:17:32;11.30;;;2.00;;
49828;SDS011;35723;51.194;5.112;2022-09-16T18:19:57;13.30;;;1.98;;